sensor_id;sensor_type;location;lat;lon;timestamp;pressure;altitude;pressure_sealevel;temperature
18713;BMP280;9485;49.386;8.674;2022-08-03T00:00:24;100368.09;;;23.53
18713;BMP280;9485;49.386;8.674;2022-08-03T00:05:47;100359.72;;;23.48
18713;BMP280;9485;49.386;8.674;2022-08-03T00:11:07;100368.50;;;23.49
18713;BMP280;9485;49.386;8.674;2022-08-03T00:16:28;100367.38;;;23.45
18713;BMP280;9485;49.386;8.674;2022-08-03T00:21:49;100370.13;;;23.43
18713;BMP280;9485;49.386;8.674;2022-08-03T00:27:10;100368.41;;;23.40
18713;BMP280;9485;49.386;8.674;2022-08-03T00:32:31;100365.16;;;23.36
18713;BMP280;9485;49.386;8.674;2022-08-03T00:37:53;100359.03;;;23.32
18713;BMP280;9485;49.386;8.674;2022-08-03T00:43:14;100357.91;;;23.28
18713;BMP280;9485;49.386;8.674;2022-08-03T00:48:34;100347.78;;;23.19
18713;BMP280;9485;49.386;8.674;2022-08-03T00:53:56;100352.03;;;23.18
18713;BMP280;9485;49.386;8.674;2022-08-03T00:59:17;100355.56;;;23.09
18713;BMP280;9485;49.386;8.674;2022-08-03T01:04:38;100351.13;;;23.01
18713;BMP280;9485;49.386;8.674;2022-08-03T01:10:07;100348.91;;;22.92
18713;BMP280;9485;49.386;8.674;2022-08-03T01:15:37;100351.22;;;22.86
18713;BMP280;9485;49.386;8.674;2022-08-03T01:21:08;100346.25;;;22.79
18713;BMP280;9485;49.386;8.674;2022-08-03T01:27:02;100339.94;;;22.73
18713;BMP280;9485;49.386;8.674;2022-08-03T01:32:34;100331.56;;;22.68
18713;BMP280;9485;49.386;8.674;2022-08-03T01:38:00;100333.28;;;22.63
18713;BMP280;9485;49.386;8.674;2022-08-03T01:43:26;100327.94;;;22.60
18713;BMP280;9485;49.386;8.674;2022-08-03T01:48:50;100321.03;;;22.55
18713;BMP280;9485;49.386;8.674;2022-08-03T01:54:12;100325.66;;;22.51
18713;BMP280;9485;49.386;8.674;2022-08-03T01:59:35;100335.63;;;22.50
18713;BMP280;9485;49.386;8.674;2022-08-03T02:05:00;100328.94;;;22.47
18713;BMP280;9485;49.386;8.674;2022-08-03T02:10:24;100334.50;;;22.45
18713;BMP280;9485;49.386;8.674;2022-08-03T02:15:48;100324.94;;;22.43
18713;BMP280;9485;49.386;8.674;2022-08-03T02:21:12;100330.47;;;22.41
18713;BMP280;9485;49.386;8.674;2022-08-03T02:26:37;100326.66;;;22.38
18713;BMP280;9485;49.386;8.674;2022-08-03T02:32:02;100340.69;;;22.34
18713;BMP280;9485;49.386;8.674;2022-08-03T02:37:30;100339.53;;;22.30
18713;BMP280;9485;49.386;8.674;2022-08-03T02:42:57;100327.06;;;22.27
18713;BMP280;9485;49.386;8.674;2022-08-03T02:48:24;100335.13;;;22.21
18713;BMP280;9485;49.386;8.674;2022-08-03T02:53:48;100324.03;;;22.18
18713;BMP280;9485;49.386;8.674;2022-08-03T02:59:11;100328.03;;;22.15
18713;BMP280;9485;49.386;8.674;2022-08-03T03:04:32;100326.34;;;22.12
18713;BMP280;9485;49.386;8.674;2022-08-03T03:09:56;100327.28;;;22.07
18713;BMP280;9485;49.386;8.674;2022-08-03T03:15:17;100329.59;;;22.01
18713;BMP280;9485;49.386;8.674;2022-08-03T03:20:39;100327.91;;;21.98
18713;BMP280;9485;49.386;8.674;2022-08-03T03:26:02;100318.88;;;21.94
18713;BMP280;9485;49.386;8.674;2022-08-03T03:31:23;100312.19;;;21.92
18713;BMP280;9485;49.386;8.674;2022-08-03T03:36:44;100313.91;;;21.87
18713;BMP280;9485;49.386;8.674;2022-08-03T03:42:06;100315.84;;;21.85
18713;BMP280;9485;49.386;8.674;2022-08-03T03:47:27;100320.84;;;21.84
18713;BMP280;9485;49.386;8.674;2022-08-03T03:52:48;100316.97;;;21.82
18713;BMP280;9485;49.386;8.674;2022-08-03T03:58:10;100323.31;;;21.80
18713;BMP280;9485;49.386;8.674;2022-08-03T04:03:31;100317.38;;;21.78
18713;BMP280;9485;49.386;8.674;2022-08-03T04:08:51;100327.91;;;21.76
18713;BMP280;9485;49.386;8.674;2022-08-03T04:14:34;100325.81;;;21.76
18713;BMP280;9485;49.386;8.674;2022-08-03T04:19:56;100320.47;;;21.73
18713;BMP280;9485;49.386;8.674;2022-08-03T04:25:22;100323.69;;;21.77
18713;BMP280;9485;49.386;8.674;2022-08-03T04:30:48;100335.19;;;21.77
18713;BMP280;9485;49.386;8.674;2022-08-03T04:36:15;100329.84;;;21.73
18713;BMP280;9485;49.386;8.674;2022-08-03T04:41:38;100334.84;;;21.73
18713;BMP280;9485;49.386;8.674;2022-08-03T04:47:01;100347.47;;;21.77
18713;BMP280;9485;49.386;8.674;2022-08-03T04:52:23;100347.66;;;21.79
18713;BMP280;9485;49.386;8.674;2022-08-03T04:57:43;100340.97;;;21.84
18713;BMP280;9485;49.386;8.674;2022-08-03T05:03:05;100350.16;;;21.90
18713;BMP280;9485;49.386;8.674;2022-08-03T05:08:26;100344.97;;;21.96
18713;BMP280;9485;49.386;8.674;2022-08-03T05:13:46;100345.72;;;22.04
18713;BMP280;9485;49.386;8.674;2022-08-03T05:19:08;100343.97;;;22.16
18713;BMP280;9485;49.386;8.674;2022-08-03T05:24:29;100362.16;;;22.33
18713;BMP280;9485;49.386;8.674;2022-08-03T05:29:50;100353.09;;;22.52
18713;BMP280;9485;49.386;8.674;2022-08-03T05:35:12;100359.16;;;22.70
18713;BMP280;9485;49.386;8.674;2022-08-03T05:40:33;100365.03;;;22.87
18713;BMP280;9485;49.386;8.674;2022-08-03T05:45:53;100361.13;;;23.07
18713;BMP280;9485;49.386;8.674;2022-08-03T05:51:15;100370.22;;;23.28
18713;BMP280;9485;49.386;8.674;2022-08-03T05:56:36;100358.94;;;23.47
18713;BMP280;9485;49.386;8.674;2022-08-03T06:01:59;100373.56;;;23.73
18713;BMP280;9485;49.386;8.674;2022-08-03T06:07:21;100367.06;;;23.90
18713;BMP280;9485;49.386;8.674;2022-08-03T06:12:41;100385.44;;;24.19
18713;BMP280;9485;49.386;8.674;2022-08-03T06:18:03;100379.88;;;24.37
18713;BMP280;9485;49.386;8.674;2022-08-03T06:23:25;100374.13;;;24.54
18713;BMP280;9485;49.386;8.674;2022-08-03T06:28:45;100379.47;;;24.75
18713;BMP280;9485;49.386;8.674;2022-08-03T06:34:07;100375.50;;;24.97
18713;BMP280;9485;49.386;8.674;2022-08-03T06:39:30;100377.19;;;25.16
18713;BMP280;9485;49.386;8.674;2022-08-03T06:44:51;100382.34;;;25.35
18713;BMP280;9485;49.386;8.674;2022-08-03T06:50:12;100384.00;;;24.95
18713;BMP280;9485;49.386;8.674;2022-08-03T06:55:34;100375.22;;;24.76
18713;BMP280;9485;49.386;8.674;2022-08-03T07:00:55;100378.66;;;24.91
18713;BMP280;9485;49.386;8.674;2022-08-03T07:06:15;100384.13;;;25.83
18713;BMP280;9485;49.386;8.674;2022-08-03T07:11:38;100401.47;;;27.91
18713;BMP280;9485;49.386;8.674;2022-08-03T07:16:59;100404.13;;;30.22
18713;BMP280;9485;49.386;8.674;2022-08-03T07:22:19;100405.75;;;32.08
18713;BMP280;9485;49.386;8.674;2022-08-03T07:27:44;100390.84;;;33.71
18713;BMP280;9485;49.386;8.674;2022-08-03T07:33:05;100405.63;;;35.35
18713;BMP280;9485;49.386;8.674;2022-08-03T07:38:26;100407.69;;;36.82
18713;BMP280;9485;49.386;8.674;2022-08-03T07:43:48;100409.66;;;38.06
18713;BMP280;9485;49.386;8.674;2022-08-03T07:49:09;100406.69;;;39.05
18713;BMP280;9485;49.386;8.674;2022-08-03T07:54:30;100398.13;;;39.78
18713;BMP280;9485;49.386;8.674;2022-08-03T07:59:51;100402.31;;;40.29
18713;BMP280;9485;49.386;8.674;2022-08-03T08:05:12;100396.06;;;40.86
18713;BMP280;9485;49.386;8.674;2022-08-03T08:10:33;100399.69;;;41.22
18713;BMP280;9485;49.386;8.674;2022-08-03T08:15:55;100409.00;;;41.48
18713;BMP280;9485;49.386;8.674;2022-08-03T08:21:16;100399.72;;;41.69
18713;BMP280;9485;49.386;8.674;2022-08-03T08:26:37;100393.81;;;42.22
18713;BMP280;9485;49.386;8.674;2022-08-03T08:31:59;100384.81;;;42.73
18713;BMP280;9485;49.386;8.674;2022-08-03T08:37:19;100386.53;;;43.00
18713;BMP280;9485;49.386;8.674;2022-08-03T08:42:42;100381.72;;;43.40
18713;BMP280;9485;49.386;8.674;2022-08-03T08:48:06;100371.53;;;43.69
18713;BMP280;9485;49.386;8.674;2022-08-03T08:53:28;100382.63;;;43.59
18713;BMP280;9485;49.386;8.674;2022-08-03T08:58:58;100377.53;;;43.77
18713;BMP280;9485;49.386;8.674;2022-08-03T09:04:21;100367.28;;;44.02
18713;BMP280;9485;49.386;8.674;2022-08-03T09:09:42;100369.59;;;44.17
18713;BMP280;9485;49.386;8.674;2022-08-03T09:15:17;100354.00;;;44.25
18713;BMP280;9485;49.386;8.674;2022-08-03T09:20:39;100353.09;;;43.91
18713;BMP280;9485;49.386;8.674;2022-08-03T09:25:59;100363.31;;;43.60
18713;BMP280;9485;49.386;8.674;2022-08-03T09:31:29;100363.13;;;43.42
18713;BMP280;9485;49.386;8.674;2022-08-03T09:36:51;100352.81;;;43.47
18713;BMP280;9485;49.386;8.674;2022-08-03T09:42:15;100340.75;;;43.27
18713;BMP280;9485;49.386;8.674;2022-08-03T09:47:36;100345.09;;;43.10
18713;BMP280;9485;49.386;8.674;2022-08-03T09:53:01;100341.13;;;42.86
18713;BMP280;9485;49.386;8.674;2022-08-03T09:58:23;100330.47;;;42.63
18713;BMP280;9485;49.386;8.674;2022-08-03T10:03:57;100331.47;;;42.87
18713;BMP280;9485;49.386;8.674;2022-08-03T10:09:19;100327.81;;;42.93
18713;BMP280;9485;49.386;8.674;2022-08-03T10:14:41;100324.47;;;43.36
18713;BMP280;9485;49.386;8.674;2022-08-03T10:20:05;100322.59;;;43.90
18713;BMP280;9485;49.386;8.674;2022-08-03T10:25:30;100327.16;;;44.11
18713;BMP280;9485;49.386;8.674;2022-08-03T10:30:55;100321.13;;;43.91
18713;BMP280;9485;49.386;8.674;2022-08-03T10:36:16;100312.78;;;43.64
18713;BMP280;9485;49.386;8.674;2022-08-03T10:41:40;100306.09;;;43.65
18713;BMP280;9485;49.386;8.674;2022-08-03T10:47:03;100304.78;;;43.98
18713;BMP280;9485;49.386;8.674;2022-08-03T10:52:24;100301.16;;;44.17
18713;BMP280;9485;49.386;8.674;2022-08-03T10:57:50;100293.00;;;44.24
18713;BMP280;9485;49.386;8.674;2022-08-03T11:03:12;100286.34;;;44.47
18713;BMP280;9485;49.386;8.674;2022-08-03T11:08:33;100276.66;;;44.51
18713;BMP280;9485;49.386;8.674;2022-08-03T11:14:01;100281.13;;;44.58
18713;BMP280;9485;49.386;8.674;2022-08-03T11:19:22;100271.44;;;44.43
18713;BMP280;9485;49.386;8.674;2022-08-03T11:25:02;100263.91;;;44.14
18713;BMP280;9485;49.386;8.674;2022-08-03T11:30:24;100269.09;;;43.98
18713;BMP280;9485;49.386;8.674;2022-08-03T11:35:58;100249.47;;;43.43
18713;BMP280;9485;49.386;8.674;2022-08-03T11:41:32;100245.72;;;43.39
18713;BMP280;9485;49.386;8.674;2022-08-03T11:46:54;100247.41;;;43.74
18713;BMP280;9485;49.386;8.674;2022-08-03T11:52:16;100240.00;;;43.83
18713;BMP280;9485;49.386;8.674;2022-08-03T11:57:38;100249.72;;;43.85
18713;BMP280;9485;49.386;8.674;2022-08-03T12:03:06;100230.28;;;43.68
18713;BMP280;9485;49.386;8.674;2022-08-03T12:08:32;100221.94;;;43.39
18713;BMP280;9485;49.386;8.674;2022-08-03T12:13:53;100227.91;;;43.43
18713;BMP280;9485;49.386;8.674;2022-08-03T12:19:15;100226.38;;;43.38
18713;BMP280;9485;49.386;8.674;2022-08-03T12:24:41;100218.22;;;43.38
18713;BMP280;9485;49.386;8.674;2022-08-03T12:30:03;100215.38;;;43.66
18713;BMP280;9485;49.386;8.674;2022-08-03T12:35:26;100206.47;;;43.66
18713;BMP280;9485;49.386;8.674;2022-08-03T12:40:59;100207.97;;;43.65
18713;BMP280;9485;49.386;8.674;2022-08-03T12:46:21;100199.06;;;43.75
18713;BMP280;9485;49.386;8.674;2022-08-03T12:51:58;100195.41;;;43.85
18713;BMP280;9485;49.386;8.674;2022-08-03T12:57:19;100192.50;;;44.12
18713;BMP280;9485;49.386;8.674;2022-08-03T13:02:39;100188.78;;;44.20
18713;BMP280;9485;49.386;8.674;2022-08-03T13:08:02;100189.59;;;44.30
18713;BMP280;9485;49.386;8.674;2022-08-03T13:13:37;100190.34;;;44.65
18713;BMP280;9485;49.386;8.674;2022-08-03T13:18:58;100194.69;;;45.43
18713;BMP280;9485;49.386;8.674;2022-08-03T13:24:20;100188.72;;;46.67
18713;BMP280;9485;49.386;8.674;2022-08-03T13:29:42;100179.41;;;47.69
18713;BMP280;9485;49.386;8.674;2022-08-03T13:35:04;100180.38;;;48.05
18713;BMP280;9485;49.386;8.674;2022-08-03T13:40:26;100176.94;;;48.35
18713;BMP280;9485;49.386;8.674;2022-08-03T13:45:46;100176.38;;;48.23
18713;BMP280;9485;49.386;8.674;2022-08-03T13:51:07;100165.94;;;47.70
18713;BMP280;9485;49.386;8.674;2022-08-03T13:56:30;100150.84;;;47.78
18713;BMP280;9485;49.386;8.674;2022-08-03T14:01:52;100146.94;;;47.89
18713;BMP280;9485;49.386;8.674;2022-08-03T14:07:13;100154.41;;;47.90
18713;BMP280;9485;49.386;8.674;2022-08-03T14:12:35;100136.66;;;47.76
18713;BMP280;9485;49.386;8.674;2022-08-03T14:17:56;100141.03;;;47.27
18713;BMP280;9485;49.386;8.674;2022-08-03T14:23:17;100137.75;;;46.89
18713;BMP280;9485;49.386;8.674;2022-08-03T14:28:40;100134.94;;;46.67
18713;BMP280;9485;49.386;8.674;2022-08-03T14:34:00;100121.75;;;46.42
18713;BMP280;9485;49.386;8.674;2022-08-03T14:39:21;100125.78;;;45.97
18713;BMP280;9485;49.386;8.674;2022-08-03T14:44:43;100118.63;;;45.48
18713;BMP280;9485;49.386;8.674;2022-08-03T14:50:05;100120.25;;;45.05
18713;BMP280;9485;49.386;8.674;2022-08-03T14:55:26;100121.09;;;44.26
18713;BMP280;9485;49.386;8.674;2022-08-03T15:00:49;100108.25;;;43.40
18713;BMP280;9485;49.386;8.674;2022-08-03T15:06:14;100097.41;;;42.60
18713;BMP280;9485;49.386;8.674;2022-08-03T15:11:35;100094.63;;;41.97
18713;BMP280;9485;49.386;8.674;2022-08-03T15:16:57;100088.06;;;41.39
18713;BMP280;9485;49.386;8.674;2022-08-03T15:22:17;100079.28;;;40.90
18713;BMP280;9485;49.386;8.674;2022-08-03T15:27:38;100074.88;;;40.44
18713;BMP280;9485;49.386;8.674;2022-08-03T15:33:00;100064.53;;;39.99
18713;BMP280;9485;49.386;8.674;2022-08-03T15:38:21;100053.59;;;39.67
18713;BMP280;9485;49.386;8.674;2022-08-03T15:43:42;100054.47;;;39.38
18713;BMP280;9485;49.386;8.674;2022-08-03T15:49:05;100053.16;;;39.08
18713;BMP280;9485;49.386;8.674;2022-08-03T15:54:26;100045.84;;;38.77
18713;BMP280;9485;49.386;8.674;2022-08-03T15:59:47;100044.47;;;38.51
18713;BMP280;9485;49.386;8.674;2022-08-03T16:05:09;100037.41;;;38.33
18713;BMP280;9485;49.386;8.674;2022-08-03T16:10:31;100042.00;;;38.10
18713;BMP280;9485;49.386;8.674;2022-08-03T16:15:52;100028.91;;;37.88
18713;BMP280;9485;49.386;8.674;2022-08-03T16:21:14;100030.03;;;37.75
18713;BMP280;9485;49.386;8.674;2022-08-03T16:26:35;100032.50;;;37.57
18713;BMP280;9485;49.386;8.674;2022-08-03T16:31:56;100039.53;;;37.44
18713;BMP280;9485;49.386;8.674;2022-08-03T16:37:18;100024.41;;;37.30
18713;BMP280;9485;49.386;8.674;2022-08-03T16:42:39;100013.72;;;37.17
18713;BMP280;9485;49.386;8.674;2022-08-03T16:47:59;100017.25;;;37.12
18713;BMP280;9485;49.386;8.674;2022-08-03T16:53:22;100015.50;;;37.03
18713;BMP280;9485;49.386;8.674;2022-08-03T16:58:43;100008.72;;;36.96
18713;BMP280;9485;49.386;8.674;2022-08-03T17:04:04;100010.00;;;36.89
18713;BMP280;9485;49.386;8.674;2022-08-03T17:09:28;100017.69;;;36.77
18713;BMP280;9485;49.386;8.674;2022-08-03T17:14:50;100012.88;;;36.64
18713;BMP280;9485;49.386;8.674;2022-08-03T17:20:14;100016.06;;;36.49
18713;BMP280;9485;49.386;8.674;2022-08-03T17:25:36;100014.16;;;36.36
18713;BMP280;9485;49.386;8.674;2022-08-03T17:30:57;100015.31;;;36.25
18713;BMP280;9485;49.386;8.674;2022-08-03T17:36:38;100019.97;;;36.10
18713;BMP280;9485;49.386;8.674;2022-08-03T17:42:00;100015.13;;;35.98
18713;BMP280;9485;49.386;8.674;2022-08-03T17:47:23;100013.28;;;35.87
18713;BMP280;9485;49.386;8.674;2022-08-03T17:52:47;100023.19;;;35.76
18713;BMP280;9485;49.386;8.674;2022-08-03T17:58:17;100017.44;;;35.58
18713;BMP280;9485;49.386;8.674;2022-08-03T18:03:49;100026.44;;;35.43
18713;BMP280;9485;49.386;8.674;2022-08-03T18:09:17;100028.06;;;35.26
18713;BMP280;9485;49.386;8.674;2022-08-03T18:14:46;100035.38;;;35.06
18713;BMP280;9485;49.386;8.674;2022-08-03T18:20:08;100039.72;;;34.86
18713;BMP280;9485;49.386;8.674;2022-08-03T18:25:29;100030.16;;;34.66
18713;BMP280;9485;49.386;8.674;2022-08-03T18:30:52;100032.34;;;34.48
18713;BMP280;9485;49.386;8.674;2022-08-03T18:36:16;100029.97;;;34.25
18713;BMP280;9485;49.386;8.674;2022-08-03T18:41:37;100032.84;;;34.06
18713;BMP280;9485;49.386;8.674;2022-08-03T18:47:21;100033.41;;;33.85
18713;BMP280;9485;49.386;8.674;2022-08-03T18:52:49;100034.66;;;33.63
18713;BMP280;9485;49.386;8.674;2022-08-03T18:58:18;100033.75;;;33.43
18713;BMP280;9485;49.386;8.674;2022-08-03T19:03:48;100030.78;;;33.25
18713;BMP280;9485;49.386;8.674;2022-08-03T19:09:21;100038.66;;;33.05
18713;BMP280;9485;49.386;8.674;2022-08-03T19:14:52;100039.84;;;32.83
18713;BMP280;9485;49.386;8.674;2022-08-03T19:20:18;100043.34;;;32.64
18713;BMP280;9485;49.386;8.674;2022-08-03T19:25:40;100048.19;;;32.44
18713;BMP280;9485;49.386;8.674;2022-08-03T19:31:02;100047.22;;;32.24
18713;BMP280;9485;49.386;8.674;2022-08-03T19:36:26;100056.63;;;32.08
18713;BMP280;9485;49.386;8.674;2022-08-03T19:41:50;100052.78;;;31.90
18713;BMP280;9485;49.386;8.674;2022-08-03T19:47:17;100062.16;;;31.73
18713;BMP280;9485;49.386;8.674;2022-08-03T19:52:43;100059.91;;;31.58
18713;BMP280;9485;49.386;8.674;2022-08-03T19:58:09;100056.13;;;31.42
18713;BMP280;9485;49.386;8.674;2022-08-03T20:03:30;100056.06;;;31.27
18713;BMP280;9485;49.386;8.674;2022-08-03T20:08:55;100056.72;;;31.12
18713;BMP280;9485;49.386;8.674;2022-08-03T20:14:16;100048.59;;;30.97
18713;BMP280;9485;49.386;8.674;2022-08-03T20:19:38;100040.28;;;30.78
18713;BMP280;9485;49.386;8.674;2022-08-03T20:25:05;100051.50;;;30.70
18713;BMP280;9485;49.386;8.674;2022-08-03T20:30:29;100049.97;;;30.55
18713;BMP280;9485;49.386;8.674;2022-08-03T20:35:51;100044.09;;;30.42
18713;BMP280;9485;49.386;8.674;2022-08-03T20:41:13;100053.56;;;30.29
18713;BMP280;9485;49.386;8.674;2022-08-03T20:46:34;100052.13;;;30.17
18713;BMP280;9485;49.386;8.674;2022-08-03T20:51:55;100052.94;;;30.06
18713;BMP280;9485;49.386;8.674;2022-08-03T20:57:17;100055.16;;;29.94
18713;BMP280;9485;49.386;8.674;2022-08-03T21:02:39;100046.97;;;29.79
18713;BMP280;9485;49.386;8.674;2022-08-03T21:08:03;100045.75;;;29.70
18713;BMP280;9485;49.386;8.674;2022-08-03T21:13:36;100034.78;;;29.58
18713;BMP280;9485;49.386;8.674;2022-08-03T21:19:02;100031.81;;;29.44
18713;BMP280;9485;49.386;8.674;2022-08-03T21:24:25;100034.75;;;29.33
18713;BMP280;9485;49.386;8.674;2022-08-03T21:29:50;100039.06;;;29.20
18713;BMP280;9485;49.386;8.674;2022-08-03T21:35:11;100025.31;;;29.09
18713;BMP280;9485;49.386;8.674;2022-08-03T21:40:32;100029.00;;;28.98
18713;BMP280;9485;49.386;8.674;2022-08-03T21:46:00;100025.47;;;28.89
18713;BMP280;9485;49.386;8.674;2022-08-03T21:51:23;100025.59;;;28.79
18713;BMP280;9485;49.386;8.674;2022-08-03T21:56:47;100035.94;;;28.71
18713;BMP280;9485;49.386;8.674;2022-08-03T22:02:14;100020.78;;;28.61
18713;BMP280;9485;49.386;8.674;2022-08-03T22:07:37;100024.59;;;28.52
18713;BMP280;9485;49.386;8.674;2022-08-03T22:12:58;100033.53;;;28.44
18713;BMP280;9485;49.386;8.674;2022-08-03T22:18:19;100028.00;;;28.37
18713;BMP280;9485;49.386;8.674;2022-08-03T22:23:44;100029.75;;;28.30
18713;BMP280;9485;49.386;8.674;2022-08-03T22:29:06;100031.50;;;28.24
18713;BMP280;9485;49.386;8.674;2022-08-03T22:34:28;100028.06;;;28.16
18713;BMP280;9485;49.386;8.674;2022-08-03T22:39:49;100028.41;;;28.11
18713;BMP280;9485;49.386;8.674;2022-08-03T22:45:11;100026.38;;;28.02
18713;BMP280;9485;49.386;8.674;2022-08-03T22:50:33;100022.59;;;27.99
18713;BMP280;9485;49.386;8.674;2022-08-03T22:55:54;100033.66;;;27.91
18713;BMP280;9485;49.386;8.674;2022-08-03T23:01:19;100032.66;;;27.87
18713;BMP280;9485;49.386;8.674;2022-08-03T23:06:46;100037.78;;;27.77
18713;BMP280;9485;49.386;8.674;2022-08-03T23:12:14;100057.22;;;27.74
18713;BMP280;9485;49.386;8.674;2022-08-03T23:17:43;100053.78;;;27.66
18713;BMP280;9485;49.386;8.674;2022-08-03T23:23:07;100054.91;;;27.61
18713;BMP280;9485;49.386;8.674;2022-08-03T23:28:30;100052.94;;;27.54
18713;BMP280;9485;49.386;8.674;2022-08-03T23:33:55;100060.47;;;27.48
18713;BMP280;9485;49.386;8.674;2022-08-03T23:39:33;100048.31;;;27.40
18713;BMP280;9485;49.386;8.674;2022-08-03T23:44:56;100034.69;;;27.31
18713;BMP280;9485;49.386;8.674;2022-08-03T23:50:18;100032.25;;;27.28
18713;BMP280;9485;49.386;8.674;2022-08-03T23:55:57;100030.84;;;27.29
